createdAt,value
2019-03-27T00:02:02.348Z,14
2019-03-27T00:07:07.735Z,13.6
2019-03-27T00:12:12.931Z,15.6
2019-03-27T00:17:18.036Z,11.8
2019-03-27T00:22:23.399Z,14
2019-03-27T00:27:28.891Z,13.4
2019-03-27T00:32:34.050Z,11.8
2019-03-27T00:37:39.450Z,11
2019-03-27T00:42:43.173Z,12.3
2019-03-27T00:47:48.614Z,10
2019-03-27T00:52:52.297Z,9.6
2019-03-27T00:57:57.389Z,11.1
2019-03-27T01:03:01.721Z,10.6
2019-03-27T01:08:06.912Z,12.7
2019-03-27T01:13:12.224Z,12.1
2019-03-27T01:18:17.982Z,10.6
2019-03-27T01:23:23.376Z,8.7
2019-03-27T01:28:28.592Z,10.5
2019-03-27T01:33:34.022Z,11.5
2019-03-27T01:38:40.995Z,10.6
2019-03-27T01:43:46.278Z,11.5
2019-03-27T01:48:51.651Z,9.9
2019-03-27T01:53:57.065Z,10.4
2019-03-27T01:59:02.109Z,11.1
2019-03-27T02:04:05.960Z,11.6
2019-03-27T02:09:11.683Z,8.9
2019-03-27T02:14:19.018Z,10.9
2019-03-27T02:19:18.296Z,9.5
2019-03-27T02:24:23.459Z,10.9
2019-03-27T02:29:29.117Z,9.1
2019-03-27T02:34:35.055Z,12
2019-03-27T02:39:40.371Z,9.9
2019-03-27T02:44:45.625Z,10.3
2019-03-27T02:49:50.735Z,10
2019-03-27T02:54:56.216Z,9.8
2019-03-27T03:00:01.502Z,8
2019-03-27T03:05:06.967Z,7.8
2019-03-27T03:10:12.230Z,8.6
2019-03-27T03:15:17.766Z,10.4
2019-03-27T03:20:23.014Z,10.1
2019-03-27T03:25:28.379Z,9.7
2019-03-27T03:30:33.465Z,9.2
2019-03-27T03:35:38.939Z,10.6
2019-03-27T03:40:44.635Z,11.6
2019-03-27T03:45:50.013Z,9.9
2019-03-27T03:50:55.738Z,10.3
2019-03-27T03:56:01.242Z,9.4
2019-03-27T04:01:06.709Z,14.4
2019-03-27T04:06:12.657Z,9
2019-03-27T04:11:17.830Z,8.4
2019-03-27T04:16:23.144Z,11.9
2019-03-27T04:21:28.466Z,13.7
2019-03-27T04:26:34.099Z,16.2
2019-03-27T04:31:38.322Z,13.6
2019-03-27T04:36:43.933Z,15
2019-03-27T04:41:49.221Z,14.9
2019-03-27T04:46:54.355Z,17.4
2019-03-27T04:51:59.764Z,14
2019-03-27T04:57:05.003Z,11.6
2019-03-27T05:02:10.432Z,44
2019-03-27T05:07:18.933Z,51.8
2019-03-27T05:12:24.387Z,25.5
2019-03-27T05:17:44.641Z,17.5
2019-03-27T05:22:42.883Z,27.5
2019-03-27T05:27:48.478Z,21.8
2019-03-27T05:32:52.505Z,22.1
2019-03-27T05:37:57.765Z,44.5
2019-03-27T05:43:02.929Z,44.8
2019-03-27T05:48:09.511Z,41.5
2019-03-27T05:53:14.737Z,39
2019-03-27T05:58:20.146Z,35.5
2019-03-27T06:03:25.361Z,24.4
2019-03-27T06:08:30.614Z,32.9
2019-03-27T06:13:35.913Z,20.1
2019-03-27T06:18:42.613Z,20.9
2019-03-27T06:23:47.741Z,19.7
2019-03-27T06:28:54.171Z,29.3
2019-03-27T06:33:59.326Z,23
2019-03-27T06:39:01.550Z,24.8
2019-03-27T06:44:06.712Z,30.2
2019-03-27T06:49:12.267Z,23.1
2019-03-27T06:54:17.550Z,18.3
2019-03-27T06:59:23.644Z,15.7
2019-03-27T07:04:28.772Z,14.1
2019-03-27T07:09:34.711Z,12.1
2019-03-27T07:14:39.809Z,10.6
2019-03-27T07:19:45.013Z,26.9
2019-03-27T07:24:49.945Z,22.6
2019-03-27T07:29:56.342Z,11.9
2019-03-27T07:34:59.869Z,10.4
2019-03-27T07:40:05.879Z,11.5
2019-03-27T07:45:11.075Z,14.1
2019-03-27T07:50:15.369Z,12
2019-03-27T07:55:20.333Z,10.9
2019-03-27T08:00:25.407Z,9.6
2019-03-27T08:05:30.471Z,28.2
2019-03-27T08:10:35.820Z,8.1
2019-03-27T08:15:40.999Z,10.8
2019-03-27T08:20:46.613Z,13.6
2019-03-27T08:25:52.120Z,11.3
2019-03-27T08:30:57.296Z,8.4
2019-03-27T08:36:02.377Z,10.9
2019-03-27T08:41:07.520Z,18.1
2019-03-27T08:46:12.761Z,7.7
2019-03-27T08:51:17.879Z,9.1
2019-03-27T08:56:22.816Z,10
2019-03-27T09:01:28.062Z,10.6
2019-03-27T09:06:33.787Z,8.9
2019-03-27T09:11:39.718Z,9
2019-03-27T09:16:44.863Z,7.5
2019-03-27T09:21:50.329Z,8
2019-03-27T09:26:55.412Z,7
2019-03-27T09:32:00.393Z,12.4
2019-03-27T09:37:05.708Z,14.9
2019-03-27T09:42:11.384Z,7.2
2019-03-27T09:47:17.241Z,11.8
2019-03-27T09:52:22.892Z,9.6
2019-03-27T09:57:27.974Z,9.8
2019-03-27T10:02:33.617Z,8.3
2019-03-27T10:07:38.866Z,8.8
2019-03-27T10:12:44.078Z,7.5
2019-03-27T10:17:49.017Z,8.4
2019-03-27T10:22:54.103Z,8.4
2019-03-27T10:27:59.403Z,17.6
2019-03-27T10:33:04.728Z,9.8
2019-03-27T10:38:10.208Z,10.4
2019-03-27T10:43:15.310Z,5.4
2019-03-27T10:48:20.560Z,10.4
2019-03-27T10:53:28.705Z,7.4
2019-03-27T10:58:34.688Z,6.9
2019-03-27T11:03:38.443Z,12.7
2019-03-27T11:08:43.616Z,8.7
2019-03-27T11:13:48.943Z,13.1
2019-03-27T11:18:54.020Z,7.7
2019-03-27T11:23:59.036Z,8.5
2019-03-27T11:29:04.408Z,6.7
2019-03-27T11:34:09.989Z,7.7
2019-03-27T11:39:15.081Z,8.4
2019-03-27T11:44:20.354Z,8.8
2019-03-27T11:49:24.631Z,11
2019-03-27T11:54:29.868Z,8
2019-03-27T11:59:35.104Z,13.9
2019-03-27T12:04:40.655Z,7.3
2019-03-27T12:09:46.336Z,12.8
2019-03-27T12:14:52.535Z,8.2
2019-03-27T12:19:57.987Z,15.9
2019-03-27T12:40:20.523Z,11.9
2019-03-27T12:45:28.064Z,8.3
2019-03-27T12:50:33.565Z,11.9
2019-03-27T12:55:38.856Z,5.6
2019-03-27T13:00:43.800Z,9.9
2019-03-27T13:05:49.440Z,6.4
2019-03-27T13:10:54.711Z,6.7
2019-03-27T13:15:58.457Z,5.5
2019-03-27T13:21:07.142Z,7.2
2019-03-27T13:26:12.432Z,10.6
2019-03-27T13:31:17.415Z,9.6
2019-03-27T13:36:23.737Z,9.1
2019-03-27T13:41:27.402Z,6.9
2019-03-27T13:46:33.026Z,8.2
2019-03-27T13:51:40.678Z,18.5
2019-03-27T13:56:45.078Z,5.8
2019-03-27T14:01:50.230Z,5.4
2019-03-27T14:06:53.860Z,3.7
2019-03-27T14:11:59.344Z,4.6
2019-03-27T14:17:04.916Z,5
2019-03-27T14:22:10.087Z,6.1
2019-03-27T14:27:15.103Z,7
2019-03-27T14:32:20.180Z,5.4
2019-03-27T14:37:25.433Z,7.6
2019-03-27T14:42:30.823Z,4.4
2019-03-27T14:47:36.569Z,5.7
2019-03-27T14:52:42.205Z,6.8
2019-03-27T14:57:48.257Z,4.4
2019-03-27T15:02:53.209Z,4.6
2019-03-27T15:07:58.432Z,9.9
2019-03-27T15:13:06.936Z,4.6
2019-03-27T15:18:12.073Z,5.9
2019-03-27T15:23:17.524Z,4.8
2019-03-27T15:28:22.689Z,29.1
2019-03-27T15:33:27.690Z,10.9
2019-03-27T15:38:33.521Z,8.7
2019-03-27T15:43:38.841Z,10.3
2019-03-27T15:48:44.081Z,6.7
2019-03-27T15:53:49.434Z,13.5
2019-03-27T15:58:56.338Z,7.2
2019-03-27T16:04:02.074Z,12.7
2019-03-27T16:09:07.561Z,6.1
2019-03-27T16:14:13.200Z,9
2019-03-27T16:19:18.942Z,9.8
2019-03-27T16:24:24.296Z,20.3
2019-03-27T16:29:29.837Z,42.6
2019-03-27T16:34:35.610Z,19.7
2019-03-27T16:39:40.960Z,7.5
2019-03-27T16:44:46.136Z,8.7
2019-03-27T16:49:51.904Z,30.2
2019-03-27T16:54:57.345Z,10.3
2019-03-27T17:00:02.513Z,12.7
2019-03-27T17:05:06.275Z,11.8
2019-03-27T17:10:11.418Z,11.2
2019-03-27T17:15:16.888Z,12.3
2019-03-27T17:20:20.790Z,14.3
2019-03-27T17:25:25.327Z,15.6
2019-03-27T17:30:31.903Z,21.9
2019-03-27T17:35:39.757Z,13.9
2019-03-27T17:40:47.775Z,15.9
2019-03-27T17:45:45.910Z,17.7
2019-03-27T17:50:50.924Z,17.3
2019-03-27T17:55:56.224Z,17.4
2019-03-27T18:01:01.495Z,20.8
2019-03-27T18:06:11.432Z,18.3
2019-03-27T18:11:16.617Z,16.5
2019-03-27T18:16:25.596Z,20.2
2019-03-27T18:21:31.049Z,21.7
2019-03-27T18:26:36.416Z,28.2
2019-03-27T18:31:40.194Z,31.1
2019-03-27T18:36:45.532Z,21.4
2019-03-27T18:41:50.795Z,27.4
2019-03-27T18:46:55.105Z,32.3
2019-03-27T18:52:03.190Z,25.5
2019-03-27T18:57:08.558Z,28.6
2019-03-27T19:02:14.197Z,29.8
2019-03-27T19:07:19.376Z,27.4
2019-03-27T19:12:27.070Z,22.4
2019-03-27T19:17:32.569Z,25.2
2019-03-27T19:22:36.733Z,35.7
2019-03-27T19:27:42.179Z,36.6
2019-03-27T19:32:46.301Z,41.9
2019-03-27T19:37:49.976Z,65.1
2019-03-27T19:42:58.284Z,53.7
2019-03-27T19:48:03.688Z,41.1
2019-03-27T19:53:08.885Z,45.5
2019-03-27T19:58:18.931Z,30.2
2019-03-27T20:03:24.540Z,29.9
2019-03-27T20:08:29.632Z,29.5
2019-03-27T20:13:29.824Z,25
2019-03-27T20:18:33.383Z,29.2
2019-03-27T20:23:38.664Z,30
2019-03-27T20:28:44.010Z,27
2019-03-27T20:33:52.795Z,26.9
2019-03-27T20:38:58.249Z,26.1
2019-03-27T20:44:03.632Z,28.1
2019-03-27T20:49:08.974Z,32.9
2019-03-27T20:54:14.743Z,50.3
2019-03-27T20:59:20.165Z,59.9
2019-03-27T21:04:24.165Z,47.1
2019-03-27T21:09:29.796Z,37.9
2019-03-27T21:14:34.933Z,33.8
2019-03-27T21:19:44.786Z,29.6
2019-03-27T21:24:50.075Z,28.2
2019-03-27T21:29:55.138Z,29.7
2019-03-27T21:35:00.432Z,26
2019-03-27T21:40:08.434Z,26.1
2019-03-27T21:45:14.072Z,26.8
2019-03-27T21:50:19.243Z,22.6
2019-03-27T21:55:24.669Z,23.9
2019-03-27T22:00:29.836Z,26.8
2019-03-27T22:05:35.009Z,27.7
2019-03-27T22:10:40.200Z,27.7
2019-03-27T22:15:45.421Z,37.5
2019-03-27T22:20:50.513Z,32.1
2019-03-27T22:25:55.915Z,28.7
2019-03-27T22:31:01.294Z,33.9
2019-03-27T22:36:07.189Z,28.9
2019-03-27T22:41:12.194Z,30.1
2019-03-27T22:46:16.355Z,26.1
2019-03-27T22:51:21.839Z,28.1
2019-03-27T22:56:27.121Z,31.8
2019-03-27T23:01:32.173Z,28.4
2019-03-27T23:06:37.389Z,30.5
2019-03-27T23:11:42.464Z,50.1
2019-03-27T23:16:47.730Z,32.6
2019-03-27T23:21:52.922Z,31.5
2019-03-27T23:26:56.694Z,24.9
2019-03-27T23:32:02.654Z,26.8
2019-03-27T23:37:07.900Z,26.5
2019-03-27T23:42:14.944Z,23.8
2019-03-27T23:47:21.569Z,26.6
2019-03-27T23:52:26.662Z,24.8
2019-03-27T23:57:31.921Z,30.5
